This is the latest recevied weather packets stored in our database for station/object WC4PEM-11. If no packets are shown the sender has not sent any weather packets the latest 10 day(s).
| Time | Temp. | Humidity | Pressure | Rain* | Wind** | Luminosity | Snow |
|---|---|---|---|---|---|---|---|
| 1787422408 | 31.67° C | 70% | 1016.2 hPa | 0 mm | - | - | - |
| 1787422218 | 31.11° C | 75% | 1016.3 hPa | 0 mm | - | - | - |
| 1787422108 | 31.11° C | 75% | 1016.3 hPa | 0 mm | - | - | - |
| 1787421808 | 30.56° C | 75% | 1016.5 hPa | 0 mm | - | - | - |
| 1787421508 | 31.11° C | 73% | 1016.7 hPa | 0 mm | - | - | - |
| 1787421356 | 31.11° C | 71% | 1016.7 hPa | 0 mm | - | - | - |
| 1787421208 | 31.11° C | 71% | 1016.7 hPa | 0 mm | - | - | - |
| 1787420908 | 31.67° C | 69% | 1016.5 hPa | 0 mm | - | - | - |
| 1787420609 | 32.22° C | 70% | 1016.5 hPa | 0 mm | - | - | - |
| 1787420308 | 32.78° C | 66% | 1016.6 hPa | 0 mm | - | - | - |
| 1787420008 | 32.78° C | 66% | 1016.7 hPa | 0 mm | - | - | - |
| 1787419708 | 32.22° C | 67% | 1016.5 hPa | 0 mm | - | - | - |
| 1787419409 | 32.22° C | 68% | 1016.7 hPa | 0 mm | - | - | - |
| 1787419109 | 31.67° C | 71% | 1016.9 hPa | 0 mm | - | - | - |
| 1787418809 | 31.67° C | 71% | 1017 hPa | 0 mm | - | - | - |
| 1787418508 | 31.67° C | 69% | 1017.2 hPa | 0 mm | - | - | - |
| 1787418209 | 31.11° C | 69% | 1017.3 hPa | 0 mm | - | - | - |
| 1787418031 | 31.11° C | 70% | 1017.5 hPa | 0 mm | - | - | - |
| 1787417909 | 31.11° C | 70% | 1017.5 hPa | 0 mm | - | - | - |
| 1787417609 | 31.11° C | 71% | 1017.4 hPa | 0 mm | - | - | - |
| 1787417422 | 31.11° C | 71% | 1017.2 hPa | 0 mm | - | - | - |
| 1787417309 | 31.11° C | 71% | 1017.2 hPa | 0 mm | - | - | - |
| 1787417009 | 31.67° C | 69% | 1017.3 hPa | 0 mm | - | - | - |
| 1787416709 | 31.67° C | 69% | 1017.1 hPa | 0 mm | - | - | - |
| 1787416409 | 31.67° C | 69% | 1017.1 hPa | 0 mm | - | - | - |
* Rain latest hour (hover to see other rain measurements)
** Current wind speed in m/s (hover to see current wind gust speed)